Time;durP1;ratioP1;P1;durP2;ratioP2;P2;SDS_P1;SDS_P2;PMS_P1;PMS_P2;Temp;Humidity;BMP_temperature;BMP_pressure;BME280_temperature;BME280_humidity;BME280_pressure;Samples;Min_cycle;Max_cycle;Signal;HPM_P1;HPM_P2
2022/05/08 00:00:54;;;;;;;12.30;11.10;;;14.80;74.60;;;;;;5054232;28;20486;-67
2022/05/08 00:03:19;;;;;;;12.20;11.02;;;14.80;74.40;;;;;;5054006;28;20033;-67
2022/05/08 00:05:45;;;;;;;12.70;10.98;;;14.80;74.50;;;;;;5042091;28;20075;-67
2022/05/08 00:08:11;;;;;;;11.57;10.45;;;14.90;74.60;;;;;;5047758;28;20047;-66
2022/05/08 00:10:36;;;;;;;12.25;11.00;;;14.90;74.60;;;;;;5051287;28;20024;-67
2022/05/08 00:13:02;;;;;;;11.60;10.40;;;14.90;74.60;;;;;;5055466;28;20151;-65
2022/05/08 00:15:28;;;;;;;11.45;10.35;;;14.90;74.50;;;;;;5055756;28;20060;-66
2022/05/08 00:17:53;;;;;;;11.60;10.32;;;14.90;74.50;;;;;;5055974;28;20524;-66
2022/05/08 00:20:19;;;;;;;11.10;10.10;;;14.90;74.60;;;;;;5055761;28;20037;-67
2022/05/08 00:22:45;;;;;;;11.30;10.20;;;14.80;74.40;;;;;;5055149;28;20551;-66
2022/05/08 00:25:12;;;;;;;11.32;10.10;;;14.80;75.30;;;;;;5056039;28;20124;-67
2022/05/08 00:27:38;;;;;;;11.10;10.10;;;14.80;74.40;;;;;;5055071;28;20124;-67
2022/05/08 00:30:04;;;;;;;11.30;10.05;;;14.80;74.40;;;;;;5051735;28;20182;-67
2022/05/08 00:32:30;;;;;;;11.98;10.77;;;14.80;74.40;;;;;;5055642;28;20040;-66
2022/05/08 00:34:56;;;;;;;12.40;11.10;;;14.80;74.40;;;;;;5057842;28;20057;-67
2022/05/08 00:37:22;;;;;;;11.77;10.52;;;14.80;74.40;;;;;;5058045;28;20120;-66
2022/05/08 00:39:48;;;;;;;11.93;10.73;;;14.80;74.20;;;;;;5058013;28;20112;-67
2022/05/08 00:42:13;;;;;;;11.55;10.38;;;14.80;74.10;;;;;;5059221;28;20040;-66
2022/05/08 00:44:39;;;;;;;12.43;11.20;;;14.80;74.00;;;;;;5056474;28;20565;-67
2022/05/08 00:47:05;;;;;;;12.88;11.57;;;14.80;74.00;;;;;;5057175;28;20045;-67
2022/05/08 00:49:33;;;;;;;12.77;11.50;;;14.80;74.00;;;;;;5055265;28;21548;-67
2022/05/08 00:52:00;;;;;;;12.65;11.40;;;14.80;74.00;;;;;;5056958;28;20036;-67
2022/05/08 00:54:26;;;;;;;13.70;12.18;;;14.70;73.90;;;;;;5055622;28;20037;-66
2022/05/08 00:56:53;;;;;;;13.73;12.32;;;14.70;73.80;;;;;;5055952;28;20035;-67
2022/05/08 00:59:19;;;;;;;13.48;12.20;;;14.70;73.70;;;;;;5056224;28;20094;-67
2022/05/08 01:01:45;;;;;;;15.00;12.57;;;14.60;73.70;;;;;;5056473;28;20044;-67
2022/05/08 01:04:10;;;;;;;12.95;11.65;;;14.60;73.90;;;;;;5055863;28;20028;-67
2022/05/08 01:06:36;;;;;;;14.70;12.98;;;14.50;74.00;;;;;;5059228;28;20040;-67
2022/05/08 01:09:02;;;;;;;14.93;13.32;;;14.40;74.00;;;;;;5055394;28;20033;-67
2022/05/08 01:11:28;;;;;;;14.38;12.93;;;14.30;74.10;;;;;;5055544;28;20057;-67
2022/05/08 01:13:54;;;;;;;14.20;12.70;;;14.30;74.40;;;;;;5050270;28;20450;-67
2022/05/08 01:16:21;;;;;;;14.85;13.35;;;14.20;74.60;;;;;;5054563;28;20081;-67
2022/05/08 01:18:49;;;;;;;14.25;12.80;;;14.20;74.80;;;;;;5053677;28;20245;-67
2022/05/08 01:21:22;;;;;;;14.18;12.68;;;14.10;75.30;;;;;;5054171;28;20085;-67
2022/05/08 01:23:48;;;;;;;14.40;12.52;;;14.10;75.30;;;;;;5052547;28;20033;-67
2022/05/08 01:26:21;;;;;;;14.05;12.18;;;14.10;75.10;;;;;;5052091;28;20040;-67
2022/05/08 01:28:47;;;;;;;14.25;12.75;;;14.00;75.30;;;;;;5053077;28;20179;-66
2022/05/08 01:31:12;;;;;;;13.85;12.43;;;14.00;75.10;;;;;;5053879;28;20573;-67
2022/05/08 01:33:39;;;;;;;13.38;12.07;;;14.00;75.00;;;;;;5052419;28;20029;-67
2022/05/08 01:36:05;;;;;;;12.95;11.68;;;14.00;75.00;;;;;;5055577;28;20131;-67
2022/05/08 01:38:30;;;;;;;13.23;11.82;;;13.90;75.10;;;;;;5056946;28;20112;-67
2022/05/08 01:41:03;;;;;;;13.88;12.40;;;13.90;75.10;;;;;;5056130;28;20025;-67
2022/05/08 01:43:32;;;;;;;14.18;12.43;;;13.90;75.10;;;;;;5056048;28;20039;-65
2022/05/08 01:45:58;;;;;;;15.13;13.07;;;13.80;75.10;;;;;;5059262;28;20031;-67
2022/05/08 01:48:23;;;;;;;15.05;12.40;;;13.80;75.30;;;;;;5055421;28;20404;-68
2022/05/08 01:50:55;;;;;;;14.40;13.00;;;13.80;75.30;;;;;;5058464;28;20045;-67
2022/05/08 01:53:22;;;;;;;16.27;13.43;;;13.70;75.50;;;;;;5056287;28;20041;-66
2022/05/08 01:55:52;;;;;;;14.63;13.10;;;13.60;75.40;;;;;;5057297;28;20021;-67
2022/05/08 01:58:17;;;;;;;16.33;13.40;;;13.60;75.40;;;;;;5056502;28;20127;-67
2022/05/08 02:00:44;;;;;;;14.90;13.32;;;13.50;75.60;;;;;;5058219;28;20187;-66
2022/05/08 02:03:09;;;;;;;15.93;13.50;;;13.50;75.70;;;;;;5055512;28;20091;-67
2022/05/08 02:05:38;;;;;;;14.63;13.20;;;13.40;75.80;;;;;;5056191;28;20032;-67
2022/05/08 02:08:04;;;;;;;14.02;12.52;;;13.40;76.80;;;;;;5056576;28;20044;-67
2022/05/08 02:10:30;;;;;;;13.15;11.85;;;13.30;76.00;;;;;;5057659;28;20511;-67
2022/05/08 02:12:56;;;;;;;13.98;12.50;;;13.20;76.10;;;;;;5057580;28;20033;-67
2022/05/08 02:15:21;;;;;;;13.90;12.50;;;13.20;76.30;;;;;;5057716;28;20040;-66
2022/05/08 02:17:47;;;;;;;14.70;13.20;;;13.20;76.50;;;;;;5057559;28;20032;-66
2022/05/08 02:20:13;;;;;;;14.77;13.18;;;13.10;76.50;;;;;;5055302;28;20382;-67
2022/05/08 02:22:38;;;;;;;14.88;13.23;;;13.10;76.50;;;;;;5055898;28;20068;-66
2022/05/08 02:25:06;;;;;;;14.95;13.38;;;13.10;76.60;;;;;;5054830;28;20413;-66
2022/05/08 02:27:37;;;;;;;16.35;13.88;;;13.00;76.70;;;;;;5054995;28;20032;-65
2022/05/08 02:30:04;;;;;;;15.35;13.70;;;13.00;77.00;;;;;;5053878;28;20777;-67
2022/05/08 02:32:30;;;;;;;14.80;13.30;;;12.90;77.00;;;;;;5056273;28;20405;-66
2022/05/08 02:34:55;;;;;;;15.80;14.07;;;12.90;77.20;;;;;;5053704;28;20086;-66
2022/05/08 02:37:21;;;;;;;15.98;14.27;;;12.90;77.30;;;;;;5056834;28;20047;-65
2022/05/08 02:39:47;;;;;;;16.17;14.48;;;12.90;77.50;;;;;;5055211;28;20442;-67
2022/05/08 02:42:13;;;;;;;16.52;13.95;;;12.90;77.40;;;;;;5054452;28;20633;-66
2022/05/08 02:44:38;;;;;;;15.63;14.00;;;12.90;77.50;;;;;;5055895;28;20302;-66
2022/05/08 02:47:04;;;;;;;16.88;13.68;;;12.90;77.50;;;;;;5057909;28;20041;-66
2022/05/08 02:49:29;;;;;;;16.38;14.35;;;12.90;77.40;;;;;;5053412;28;20135;-67
2022/05/08 02:51:55;;;;;;;14.15;12.65;;;12.90;78.20;;;;;;5056612;28;20036;-66
2022/05/08 02:54:21;;;;;;;14.80;13.27;;;12.90;77.40;;;;;;5054136;28;20043;-66
2022/05/08 02:59:31;;;;;;;13.95;12.48;;;12.80;77.30;;;;;;5056462;28;20174;-66
2022/05/08 03:01:56;;;;;;;15.18;13.57;;;12.80;77.90;;;;;;5053772;28;20131;-67
2022/05/08 03:04:22;;;;;;;16.50;14.73;;;12.90;77.50;;;;;;5054347;28;20033;-66
2022/05/08 03:06:48;;;;;;;16.30;14.07;;;12.80;77.40;;;;;;5053273;28;20036;-66
2022/05/08 03:09:13;;;;;;;15.30;13.70;;;12.80;77.40;;;;;;5056985;28;20462;-66
2022/05/08 03:11:39;;;;;;;16.48;14.68;;;12.80;77.50;;;;;;5053196;28;20033;-66
2022/05/08 03:14:05;;;;;;;18.25;14.98;;;12.80;77.60;;;;;;5051991;28;20028;-66
2022/05/08 03:16:31;;;;;;;17.30;14.95;;;12.80;78.70;;;;;;5054911;28;20044;-66
2022/05/08 03:18:57;;;;;;;17.50;14.93;;;12.90;78.00;;;;;;5054949;28;20386;-66
2022/05/08 03:21:24;;;;;;;19.33;16.33;;;12.90;78.20;;;;;;5051369;28;20380;-66
2022/05/08 03:23:51;;;;;;;18.30;16.25;;;13.00;78.20;;;;;;5056701;28;20031;-66
2022/05/08 03:26:19;;;;;;;16.58;14.77;;;13.00;78.20;;;;;;5053938;28;20033;-67
2022/05/08 03:28:45;;;;;;;17.38;14.73;;;13.00;78.20;;;;;;5054586;28;20067;-66
2022/05/08 03:31:12;;;;;;;16.85;15.13;;;13.00;78.20;;;;;;5055075;28;20484;-65
2022/05/08 03:33:38;;;;;;;15.75;14.10;;;13.10;78.00;;;;;;5054167;28;20041;-65
2022/05/08 03:36:06;;;;;;;18.10;15.30;;;13.10;77.90;;;;;;5054938;28;20044;-67
2022/05/08 03:38:33;;;;;;;16.55;14.77;;;13.10;77.90;;;;;;5054280;28;20029;-66
2022/05/08 03:41:00;;;;;;;18.65;16.60;;;13.10;77.70;;;;;;5053458;28;20086;-66
2022/05/08 03:43:27;;;;;;;18.27;16.13;;;13.10;77.60;;;;;;5055538;28;20127;-67
2022/05/08 03:45:52;;;;;;;16.40;14.68;;;13.10;77.50;;;;;;5055328;28;20383;-66
2022/05/08 03:48:19;;;;;;;17.75;15.82;;;13.10;77.50;;;;;;5056371;28;20113;-67
2022/05/08 03:50:45;;;;;;;17.55;15.65;;;13.10;77.60;;;;;;5055286;28;20052;-67
2022/05/08 03:53:12;;;;;;;18.05;15.05;;;13.00;77.50;;;;;;5053574;28;20082;-67
2022/05/08 03:55:37;;;;;;;15.05;13.55;;;13.00;77.50;;;;;;5054928;28;20029;-64
2022/05/08 03:58:03;;;;;;;13.23;11.90;;;13.00;77.30;;;;;;5056275;28;20094;-67
2022/05/08 04:00:29;;;;;;;13.43;12.02;;;13.00;77.20;;;;;;5055723;28;20116;-66
2022/05/08 04:02:55;;;;;;;13.70;12.23;;;12.90;77.20;;;;;;5054405;28;20485;-67
2022/05/08 04:05:21;;;;;;;14.18;12.10;;;12.90;77.00;;;;;;5052950;28;20036;-66
2022/05/08 04:07:47;;;;;;;15.38;13.00;;;12.90;76.80;;;;;;5054181;28;20040;-66
2022/05/08 04:10:13;;;;;;;13.57;12.23;;;12.80;76.80;;;;;;5055686;28;20040;-65
2022/05/08 04:12:39;;;;;;;15.48;12.77;;;12.80;76.80;;;;;;5051878;28;20039;-65
2022/05/08 04:16:15;;;;;;;15.02;13.30;;;12.70;77.00;;;;;;5055369;28;20024;-67
2022/05/08 04:17:52;;;;;;;16.13;13.07;;;12.60;77.20;;;;;;5052550;28;20143;-66
2022/05/08 04:20:17;;;;;;;13.68;12.20;;;12.60;77.30;;;;;;5052529;28;20463;-67
2022/05/08 04:25:27;;;;;;;14.48;12.98;;;12.60;77.70;;;;;;5055089;28;20039;-66
2022/05/08 04:27:53;;;;;;;14.45;12.82;;;12.60;77.90;;;;;;5055414;28;20033;-66
2022/05/08 04:30:19;;;;;;;17.70;15.82;;;12.60;77.90;;;;;;5053271;28;20067;-66
2022/05/08 04:32:44;;;;;;;17.95;15.55;;;12.60;78.00;;;;;;5053231;28;20533;-66
2022/05/08 04:35:10;;;;;;;17.50;15.60;;;12.50;78.10;;;;;;5053361;28;20037;-66
2022/05/08 04:37:36;;;;;;;17.35;15.45;;;12.60;79.40;;;;;;5053563;28;20032;-67
2022/05/08 04:40:01;;;;;;;16.95;15.15;;;12.60;78.60;;;;;;5054746;28;20254;-67
2022/05/08 04:42:27;;;;;;;17.08;15.27;;;12.60;78.60;;;;;;5055475;28;20029;-66
2022/05/08 04:44:54;;;;;;;18.02;15.80;;;12.60;78.60;;;;;;5056244;28;20047;-66
2022/05/08 04:47:20;;;;;;;17.05;15.25;;;12.60;78.70;;;;;;5055629;28;20094;-66
2022/05/08 04:49:46;;;;;;;18.13;15.93;;;12.60;78.70;;;;;;5071375;28;20519;-67
2022/05/08 04:52:12;;;;;;;18.45;15.93;;;12.60;78.80;;;;;;5055600;28;20045;-67
2022/05/08 04:54:37;;;;;;;17.55;15.65;;;12.60;78.90;;;;;;5053693;28;20033;-67
2022/05/08 04:57:03;;;;;;;17.55;15.25;;;12.70;79.00;;;;;;5057589;28;20047;-63
2022/05/08 04:59:29;;;;;;;18.15;15.95;;;12.70;79.10;;;;;;5057410;28;20775;-67
2022/05/08 05:01:55;;;;;;;17.23;15.40;;;12.70;79.10;;;;;;5054638;28;20040;-66
2022/05/08 05:04:21;;;;;;;17.45;15.48;;;12.70;79.10;;;;;;5053339;28;20523;-66
2022/05/08 05:06:46;;;;;;;18.25;15.95;;;12.80;79.10;;;;;;5054303;28;20033;-67
2022/05/08 05:09:12;;;;;;;17.77;15.55;;;12.80;79.10;;;;;;5043960;28;22441;-67
2022/05/08 05:11:37;;;;;;;21.08;16.92;;;12.80;79.20;;;;;;5048094;28;20464;-67
2022/05/08 05:14:03;;;;;;;17.00;15.02;;;12.90;79.30;;;;;;5044905;28;20053;-67
2022/05/08 05:16:29;;;;;;;23.77;16.40;;;12.90;79.20;;;;;;5052314;28;20039;-65
2022/05/08 05:18:54;;;;;;;20.08;17.98;;;12.90;79.20;;;;;;5047441;28;20549;-67
2022/05/08 05:21:20;;;;;;;20.88;18.67;;;13.00;79.10;;;;;;5054836;28;20090;-66
2022/05/08 05:23:46;;;;;;;25.50;21.30;;;13.10;79.10;;;;;;5047171;28;20505;-67
2022/05/08 05:26:11;;;;;;;19.13;17.08;;;13.10;79.10;;;;;;5051153;28;20036;-66
2022/05/08 05:28:37;;;;;;;20.42;16.85;;;13.10;79.10;;;;;;5055427;28;20040;-67
2022/05/08 05:31:03;;;;;;;19.63;16.27;;;13.20;79.10;;;;;;5050240;28;20032;-66
2022/05/08 05:33:28;;;;;;;19.77;17.15;;;13.20;79.10;;;;;;5050007;28;20089;-67
2022/05/08 05:35:54;;;;;;;18.05;16.20;;;13.30;79.30;;;;;;5047733;28;20036;-67
2022/05/08 05:38:19;;;;;;;18.77;16.58;;;13.30;79.30;;;;;;5046722;28;20187;-65
2022/05/08 05:40:45;;;;;;;18.45;16.35;;;13.30;79.30;;;;;;5052863;28;20064;-66
2022/05/08 05:43:10;;;;;;;19.77;16.27;;;13.40;79.40;;;;;;5054472;28;20035;-67
2022/05/08 05:45:36;;;;;;;19.60;17.40;;;13.50;79.60;;;;;;5047885;28;20108;-66
2022/05/08 05:48:02;;;;;;;19.92;17.23;;;13.50;79.60;;;;;;5050093;28;20033;-66
2022/05/08 05:50:28;;;;;;;19.90;17.67;;;13.50;79.40;;;;;;5045621;28;20041;-65
2022/05/08 05:52:54;;;;;;;20.60;17.45;;;13.60;79.50;;;;;;5050590;28;20649;-66
2022/05/08 05:55:20;;;;;;;19.13;17.05;;;13.60;79.40;;;;;;5046914;28;20037;-67
2022/05/08 05:57:46;;;;;;;19.50;16.98;;;13.60;79.40;;;;;;5053338;28;20033;-66
2022/05/08 06:00:20;;;;;;;19.55;17.38;;;13.60;79.60;;;;;;5063759;28;20124;-66
2022/05/08 06:02:47;;;;;;;18.07;16.03;;;13.60;79.80;;;;;;5050573;28;20037;-66
2022/05/08 06:05:14;;;;;;;19.20;17.08;;;13.60;79.30;;;;;;5052816;28;20494;-66
2022/05/08 06:07:42;;;;;;;21.80;17.48;;;13.60;79.40;;;;;;5051409;28;20044;-66
2022/05/08 06:10:09;;;;;;;20.98;17.73;;;13.60;79.70;;;;;;5053034;28;20181;-67
2022/05/08 06:12:35;;;;;;;18.52;15.98;;;13.50;80.00;;;;;;5048131;28;20032;-66
2022/05/08 06:15:01;;;;;;;20.38;18.17;;;13.50;81.00;;;;;;5049611;28;20052;-66
2022/05/08 06:17:27;;;;;;;20.67;17.65;;;13.60;80.40;;;;;;5047944;28;20047;-66
2022/05/08 06:19:53;;;;;;;18.92;16.92;;;13.60;80.30;;;;;;5049974;28;20037;-66
2022/05/08 06:22:19;;;;;;;19.95;17.27;;;13.60;80.30;;;;;;5046661;28;20549;-66
2022/05/08 06:24:45;;;;;;;20.60;18.17;;;13.60;80.50;;;;;;5047488;28;20045;-66
2022/05/08 06:27:10;;;;;;;20.73;18.42;;;13.60;80.50;;;;;;5055249;28;20033;-66
2022/05/08 06:29:36;;;;;;;20.70;18.10;;;13.70;80.50;;;;;;5050951;28;20556;-67
2022/05/08 06:32:03;;;;;;;20.30;17.67;;;13.70;80.50;;;;;;5049983;28;20102;-67
2022/05/08 06:34:28;;;;;;;18.33;16.27;;;13.70;80.60;;;;;;5052655;28;20032;-66
2022/05/08 06:36:55;;;;;;;24.58;18.20;;;13.80;80.60;;;;;;5052542;28;20086;-67
2022/05/08 06:39:21;;;;;;;19.77;17.67;;;13.90;80.60;;;;;;5052856;28;20088;-66
2022/05/08 06:41:47;;;;;;;21.33;18.13;;;13.90;80.60;;;;;;5054905;28;20040;-66
2022/05/08 06:44:15;;;;;;;19.27;16.83;;;14.00;80.70;;;;;;5053083;28;20094;-66
2022/05/08 06:46:41;;;;;;;19.73;17.38;;;14.10;80.80;;;;;;5050903;28;20440;-66
2022/05/08 06:49:07;;;;;;;19.10;17.10;;;14.10;81.20;;;;;;5051998;28;20115;-66
2022/05/08 06:51:34;;;;;;;20.55;16.63;;;14.20;81.20;;;;;;5053909;28;20087;-65
2022/05/08 06:54:00;;;;;;;19.63;17.50;;;14.30;81.10;;;;;;5052682;28;20124;-64
2022/05/08 06:56:26;;;;;;;18.33;16.40;;;14.40;81.00;;;;;;5053439;28;20576;-66
2022/05/08 07:01:42;;;;;;;18.92;16.48;;;14.60;80.80;;;;;;5052291;28;21994;-67
2022/05/08 07:04:09;;;;;;;20.67;16.67;;;14.70;80.60;;;;;;5055115;28;20040;-67
2022/05/08 07:06:36;;;;;;;18.92;16.88;;;14.80;80.60;;;;;;5056300;28;20574;-66
2022/05/08 07:09:03;;;;;;;18.90;16.88;;;14.90;80.50;;;;;;5055811;28;20105;-67
2022/05/08 07:11:32;;;;;;;20.10;15.68;;;15.00;80.30;;;;;;5051241;28;20072;-68
2022/05/08 07:14:00;;;;;;;18.38;15.80;;;15.00;80.10;;;;;;5053825;28;21662;-66
2022/05/08 07:16:26;;;;;;;18.33;15.65;;;15.10;80.10;;;;;;5055039;28;20039;-64
2022/05/08 07:18:52;;;;;;;15.77;14.15;;;15.20;79.90;;;;;;5059665;28;20179;-66
2022/05/08 07:21:20;;;;;;;20.02;14.90;;;15.30;79.60;;;;;;5056136;28;20032;-67
2022/05/08 07:23:47;;;;;;;18.08;15.23;;;15.40;79.30;;;;;;5056045;28;20420;-67
2022/05/08 07:26:13;;;;;;;16.48;14.68;;;15.40;79.20;;;;;;5052489;28;20037;-68
2022/05/08 07:28:39;;;;;;;16.70;14.98;;;15.50;79.20;;;;;;5050163;28;20032;-66
2022/05/08 07:31:05;;;;;;;15.73;14.13;;;15.60;79.10;;;;;;5058398;28;20176;-67
2022/05/08 07:33:34;;;;;;;14.90;13.30;;;15.70;79.10;;;;;;5057964;28;20025;-66
2022/05/08 07:36:13;;;;;;;15.38;13.77;;;15.70;79.00;;;;;;5055458;28;20047;-67
2022/05/08 07:38:43;;;;;;;14.93;13.13;;;15.80;78.70;;;;;;5056591;28;20040;-67
2022/05/08 07:41:10;;;;;;;14.90;13.30;;;15.90;78.30;;;;;;5055933;28;20444;-67
2022/05/08 07:43:37;;;;;;;14.63;13.13;;;16.00;78.00;;;;;;5054827;28;20528;-67
2022/05/08 07:46:03;;;;;;;14.13;12.52;;;16.00;77.80;;;;;;5058978;28;20040;-67
2022/05/08 07:48:29;;;;;;;14.35;12.55;;;16.10;77.40;;;;;;5056054;28;20037;-66
2022/05/08 07:50:55;;;;;;;14.02;12.52;;;16.20;77.20;;;;;;5054568;28;20036;-66
2022/05/08 07:53:21;;;;;;;13.52;12.13;;;16.20;77.10;;;;;;5071571;28;20029;-66
2022/05/08 07:55:52;;;;;;;14.20;12.38;;;16.20;77.10;;;;;;5056831;28;20029;-66
2022/05/08 07:58:19;;;;;;;13.48;12.07;;;16.40;77.20;;;;;;5057889;28;20028;-66
2022/05/08 08:00:45;;;;;;;13.65;12.20;;;16.30;76.70;;;;;;5058400;28;20350;-67
2022/05/08 08:03:10;;;;;;;13.63;12.23;;;16.40;76.60;;;;;;5057899;28;20037;-67
2022/05/08 08:05:36;;;;;;;13.82;12.23;;;16.50;76.50;;;;;;5057456;28;20033;-67
2022/05/08 08:08:02;;;;;;;14.32;12.57;;;16.50;76.50;;;;;;5055381;28;20089;-66
2022/05/08 08:10:29;;;;;;;12.77;11.48;;;16.60;76.50;;;;;;5055256;28;20037;-67
2022/05/08 08:12:56;;;;;;;13.15;11.77;;;16.70;76.30;;;;;;5055907;28;20529;-67
2022/05/08 08:15:21;;;;;;;13.90;12.48;;;16.70;76.10;;;;;;5057016;28;20406;-66
2022/05/08 08:17:47;;;;;;;13.57;12.18;;;16.80;76.10;;;;;;5056971;28;20033;-66
2022/05/08 08:20:13;;;;;;;12.35;11.05;;;16.90;76.00;;;;;;5058627;28;20066;-68
2022/05/08 08:25:14;;;;;;;11.90;10.77;;;17.00;75.60;;;;;;5380827;23;20049;-67
2022/05/08 08:27:39;;;;;;;13.48;12.07;;;17.10;75.30;;;;;;4974789;28;20414;-67
2022/05/08 08:30:07;;;;;;;12.25;11.00;;;17.20;75.30;;;;;;4979670;28;20466;-67
2022/05/08 08:32:33;;;;;;;11.93;10.73;;;17.20;75.10;;;;;;4992211;28;20039;-66
2022/05/08 08:34:58;;;;;;;11.68;10.48;;;17.20;74.80;;;;;;4977488;28;20434;-67
2022/05/08 08:37:24;;;;;;;11.90;10.75;;;17.30;74.60;;;;;;4992186;28;20038;-68
2022/05/08 08:39:50;;;;;;;12.40;11.13;;;17.30;74.60;;;;;;4976080;28;20399;-67
2022/05/08 08:42:30;;;;;;;13.70;12.05;;;17.40;74.40;;;;;;4977378;28;20046;-67
2022/05/08 08:48:02;;;;;;;14.70;13.13;;;17.40;73.80;;;;;;4975841;28;20085;-66
2022/05/08 08:50:28;;;;;;;14.48;12.98;;;17.40;73.40;;;;;;4977501;28;20125;-65
2022/05/08 08:52:57;;;;;;;13.77;12.40;;;17.40;73.50;;;;;;4976320;28;20113;-67
2022/05/08 08:55:23;;;;;;;14.20;12.60;;;17.40;73.60;;;;;;4976624;28;20034;-67
2022/05/08 08:57:49;;;;;;;13.23;11.85;;;17.40;73.60;;;;;;4975747;28;20117;-66
2022/05/08 09:00:16;;;;;;;15.82;13.10;;;17.40;73.60;;;;;;4977348;28;20446;-67
2022/05/08 09:02:42;;;;;;;15.18;13.57;;;17.40;73.30;;;;;;4976237;28;20045;-67
2022/05/08 09:05:09;;;;;;;14.13;12.70;;;17.40;74.20;;;;;;4977442;28;20119;-67
2022/05/08 09:07:35;;;;;;;14.18;12.70;;;17.40;73.70;;;;;;4977748;28;20034;-67
2022/05/08 09:10:12;;;;;;;13.27;11.90;;;17.40;74.00;;;;;;4974642;28;20278;-67
2022/05/08 09:12:40;;;;;;;13.00;11.63;;;17.50;73.70;;;;;;4974482;28;20105;-67
2022/05/08 09:15:21;;;;;;;13.45;12.05;;;17.50;73.70;;;;;;4991215;28;21553;-67
2022/05/08 09:17:49;;;;;;;14.20;12.48;;;17.50;73.50;;;;;;4977457;28;20512;-67
2022/05/08 09:20:53;;;;;;;13.25;11.85;;;17.60;73.80;;;;;;4977270;28;20462;-67
2022/05/08 09:23:20;;;;;;;13.80;12.13;;;17.60;73.60;;;;;;4994188;28;20568;-67
2022/05/08 09:26:02;;;;;;;13.77;12.27;;;17.70;73.80;;;;;;4978354;28;20088;-67
2022/05/08 09:28:29;;;;;;;12.15;10.95;;;17.70;73.30;;;;;;4979306;28;20463;-68
2022/05/08 09:31:10;;;;;;;12.07;10.70;;;17.80;73.30;;;;;;4969873;28;20039;-67
2022/05/08 09:33:37;;;;;;;11.63;10.52;;;17.80;73.20;;;;;;4955660;28;20051;-68
2022/05/08 09:36:25;;;;;;;12.52;10.73;;;17.90;73.10;;;;;;4972332;28;20073;-66
2022/05/08 09:38:51;;;;;;;12.50;11.20;;;18.00;72.70;;;;;;4976209;28;20396;-68
2022/05/08 09:41:22;;;;;;;12.95;11.43;;;18.00;72.40;;;;;;4977052;28;20034;-67
2022/05/08 09:43:52;;;;;;;12.00;10.80;;;18.00;72.20;;;;;;4975004;28;20034;-68
2022/05/08 09:46:20;;;;;;;11.13;10.02;;;18.10;72.30;;;;;;4977373;28;20114;-67
2022/05/08 09:48:46;;;;;;;7.90;7.20;;;18.10;72.30;;;;;;4977140;28;20518;-67
2022/05/08 09:51:15;;;;;;;8.70;6.95;;;18.10;71.60;;;;;;4976776;28;20044;-67
2022/05/08 09:53:42;;;;;;;7.18;6.47;;;18.20;70.90;;;;;;4976042;28;20027;-67
2022/05/08 09:56:12;;;;;;;7.60;6.90;;;18.30;70.60;;;;;;4975461;28;20383;-67
2022/05/08 09:58:40;;;;;;;7.30;6.57;;;18.40;70.20;;;;;;4983384;28;20046;-68
2022/05/08 10:01:10;;;;;;;7.68;6.15;;;18.40;69.80;;;;;;4978642;28;20636;-67
2022/05/08 10:03:36;;;;;;;7.28;6.63;;;18.40;69.50;;;;;;4981371;28;20061;-67
2022/05/08 10:06:02;;;;;;;8.05;6.13;;;18.50;69.40;;;;;;4982103;28;20031;-67
2022/05/08 10:08:38;;;;;;;8.55;6.20;;;18.50;69.40;;;;;;4981478;28;20372;-68
2022/05/08 10:13:57;;;;;;;8.82;7.90;;;18.70;69.20;;;;;;4982009;28;20037;-67
2022/05/08 10:17:14;;;;;;;8.50;7.65;;;18.70;69.00;;;;;;4978727;28;20058;-67
2022/05/08 10:19:39;;;;;;;9.77;8.07;;;18.80;68.70;;;;;;4979470;28;20584;-67
2022/05/08 10:22:14;;;;;;;8.13;7.18;;;18.80;69.10;;;;;;4978286;28;20038;-67
2022/05/08 10:24:53;;;;;;;7.65;6.95;;;18.80;69.30;;;;;;4993112;28;20043;-67
2022/05/08 10:27:31;;;;;;;8.20;7.00;;;18.80;69.00;;;;;;4975662;28;20042;-66
2022/05/08 10:29:57;;;;;;;7.65;6.85;;;18.90;68.10;;;;;;4977224;28;20043;-66
2022/05/08 10:32:31;;;;;;;6.72;6.13;;;19.00;68.30;;;;;;4975403;28;20109;-67
2022/05/08 10:35:25;;;;;;;6.70;6.13;;;19.00;67.80;;;;;;4972609;28;20065;-67
2022/05/08 10:37:55;;;;;;;6.07;5.13;;;19.10;67.90;;;;;;4958055;28;20038;-67
2022/05/08 10:40:24;;;;;;;5.80;5.30;;;19.20;68.10;;;;;;4973870;28;20034;-67
2022/05/08 10:42:50;;;;;;;5.35;4.95;;;19.20;67.50;;;;;;4976842;28;20554;-68
2022/05/08 10:45:34;;;;;;;4.55;4.25;;;19.30;67.40;;;;;;4978596;28;20035;-68
2022/05/08 10:48:07;;;;;;;4.78;4.38;;;19.40;66.00;;;;;;4972249;28;20030;-67
2022/05/08 10:50:34;;;;;;;4.40;4.00;;;19.40;66.30;;;;;;4979298;28;20046;-67
2022/05/08 10:53:00;;;;;;;5.18;4.68;;;19.50;66.20;;;;;;4981475;28;20050;-68
2022/05/08 10:55:27;;;;;;;5.18;4.78;;;19.50;65.80;;;;;;4978448;28;20065;-67
2022/05/08 10:57:53;;;;;;;4.90;4.50;;;19.60;65.00;;;;;;4979320;28;20042;-67
2022/05/08 11:00:25;;;;;;;5.80;4.93;;;19.60;64.60;;;;;;4980590;28;20510;-68
2022/05/08 11:02:51;;;;;;;5.95;5.45;;;19.60;64.30;;;;;;4979362;28;20234;-68
2022/05/08 11:05:21;;;;;;;5.43;5.03;;;19.60;64.70;;;;;;4979913;28;20043;-68
2022/05/08 11:07:53;;;;;;;5.38;4.95;;;19.50;64.50;;;;;;4978814;28;20037;-67
2022/05/08 11:10:22;;;;;;;5.40;5.00;;;19.50;64.00;;;;;;4978274;28;20129;-68
2022/05/08 11:13:09;;;;;;;5.20;4.80;;;19.40;64.20;;;;;;4975673;28;20053;-67
2022/05/08 11:15:38;;;;;;;5.20;4.80;;;19.30;63.60;;;;;;4978713;28;20077;-68
2022/05/08 11:18:09;;;;;;;5.80;5.30;;;19.30;64.30;;;;;;4978628;28;20055;-67
2022/05/08 11:20:36;;;;;;;6.85;5.60;;;19.20;64.20;;;;;;4978575;28;20065;-67
2022/05/08 11:23:06;;;;;;;5.90;5.30;;;19.20;64.60;;;;;;4979985;28;20601;-68
2022/05/08 11:25:33;;;;;;;5.72;5.32;;;19.10;64.50;;;;;;4978332;28;20042;-67
2022/05/08 11:27:59;;;;;;;6.03;5.50;;;19.00;64.80;;;;;;4995381;28;20030;-68
2022/05/08 11:30:33;;;;;;;6.93;6.07;;;19.00;65.20;;;;;;4977618;28;20043;-67
2022/05/08 11:36:06;;;;;;;7.28;6.68;;;18.90;65.80;;;;;;4978341;28;20046;-67
2022/05/08 11:38:50;;;;;;;7.85;7.15;;;18.90;65.90;;;;;;4978395;28;20038;-67
2022/05/08 11:41:21;;;;;;;7.97;6.87;;;18.90;65.90;;;;;;4979446;28;20481;-67
2022/05/08 11:43:48;;;;;;;8.02;7.32;;;18.80;66.10;;;;;;4977079;28;20398;-67
2022/05/08 11:46:16;;;;;;;8.20;7.50;;;18.80;66.40;;;;;;4982439;28;20038;-67
2022/05/08 11:48:47;;;;;;;8.60;7.78;;;18.80;66.60;;;;;;4978338;28;20035;-67
2022/05/08 11:51:14;;;;;;;7.75;7.05;;;18.80;67.80;;;;;;4976456;28;20046;-67
2022/05/08 11:53:41;;;;;;;7.80;7.10;;;18.80;66.90;;;;;;4978483;28;20035;-67
2022/05/08 11:56:27;;;;;;;7.53;6.82;;;18.80;67.00;;;;;;4977994;28;20065;-67
2022/05/08 11:58:57;;;;;;;7.03;6.43;;;18.90;66.60;;;;;;4976302;28;20051;-67
2022/05/08 12:01:31;;;;;;;7.70;7.00;;;18.90;66.80;;;;;;4977277;28;20045;-67
2022/05/08 12:04:20;;;;;;;7.82;6.97;;;18.90;66.80;;;;;;4979151;28;22282;-67
2022/05/08 12:06:59;;;;;;;6.90;6.30;;;19.00;66.50;;;;;;4966960;28;20121;-67
2022/05/08 12:10:00;;;;;;;7.65;6.95;;;18.90;66.40;;;;;;4977287;28;20052;-67
2022/05/08 12:12:27;;;;;;;7.05;6.45;;;19.00;66.30;;;;;;4955984;28;20134;-67
2022/05/08 12:15:06;;;;;;;6.63;6.03;;;19.00;66.70;;;;;;4973044;28;20465;-67
2022/05/08 12:17:45;;;;;;;6.35;5.50;;;19.00;66.40;;;;;;4977232;28;20419;-67
2022/05/08 12:20:21;;;;;;;5.65;5.15;;;19.10;65.90;;;;;;4977662;28;20039;-67
2022/05/08 12:23:00;;;;;;;6.30;5.80;;;19.10;66.30;;;;;;4978895;28;20043;-67
2022/05/08 12:25:27;;;;;;;5.18;4.68;;;19.10;66.30;;;;;;4975411;28;20105;-67
2022/05/08 12:27:52;;;;;;;4.22;3.92;;;19.10;66.00;;;;;;4977040;28;20061;-67
2022/05/08 12:30:20;;;;;;;4.25;3.95;;;19.10;65.60;;;;;;4978308;28;20574;-66
2022/05/08 12:32:46;;;;;;;4.00;3.70;;;19.10;65.20;;;;;;4976514;28;20044;-68
2022/05/08 12:35:13;;;;;;;3.90;3.60;;;19.10;65.10;;;;;;4976957;28;20038;-67
2022/05/08 12:37:39;;;;;;;4.10;3.80;;;19.10;65.00;;;;;;4975851;28;20034;-67
2022/05/08 12:40:07;;;;;;;4.10;3.80;;;19.10;65.30;;;;;;4959975;28;20515;-67
2022/05/08 12:42:32;;;;;;;4.07;3.78;;;19.10;65.30;;;;;;4958843;28;20064;-67
2022/05/08 12:44:58;;;;;;;4.80;4.40;;;19.10;65.40;;;;;;4962865;28;20511;-67
2022/05/08 12:47:23;;;;;;;4.97;4.57;;;19.10;65.30;;;;;;4977399;28;22289;-66
2022/05/08 12:49:49;;;;;;;4.50;4.20;;;19.10;65.60;;;;;;4979664;28;20411;-67
2022/05/08 12:52:15;;;;;;;4.45;4.13;;;19.10;65.40;;;;;;4975495;28;20394;-67
2022/05/08 12:54:42;;;;;;;5.20;4.70;;;19.00;66.10;;;;;;4957123;28;20046;-67